Time;durP1;ratioP1;P1;durP2;ratioP2;P2;SDS_P1;SDS_P2;PMS_P1;PMS_P2;Temp;Humidity;BMP_temperature;BMP_pressure;BME280_temperature;BME280_humidity;BME280_pressure;Samples;Min_cycle;Max_cycle;Signal;HPM_P1;HPM_P2
2023/06/24 00:02:04;;;;;;;12.97;11.77;;;;;;;15.74;100.00;102263.84;4998168;28;20461;-43
2023/06/24 00:04:32;;;;;;;13.23;12.10;;;;;;;15.72;100.00;102259.69;4997739;28;20430;-44
2023/06/24 00:07:00;;;;;;;117.63;41.90;;;;;;;15.70;100.00;102259.91;4998309;28;20440;-45
2023/06/24 00:09:28;;;;;;;15.13;13.63;;;;;;;15.67;100.00;102262.97;4998806;28;21000;-43
2023/06/24 00:11:56;;;;;;;637.40;125.13;;;;;;;15.65;100.00;102256.94;4997808;28;20430;-45
2023/06/24 00:14:26;;;;;;;14.33;12.83;;;;;;;15.62;100.00;102265.41;4997823;28;20434;-45
2023/06/24 00:16:56;;;;;;;15.60;11.57;;;;;;;15.56;100.00;102263.47;4998555;28;20840;-45
2023/06/24 00:19:26;;;;;;;13.23;12.17;;;;;;;15.50;100.00;102264.28;4998410;28;20506;-46
2023/06/24 00:21:56;;;;;;;14.37;11.97;;;;;;;15.47;100.00;102265.47;4998017;28;20876;-43
2023/06/24 00:24:25;;;;;;;15.23;12.37;;;;;;;15.44;100.00;102268.50;5001178;28;20952;-43
2023/06/24 00:26:53;;;;;;;15.30;13.67;;;;;;;15.38;100.00;102277.34;5002223;28;20788;-42
2023/06/24 00:29:22;;;;;;;12.47;11.47;;;;;;;15.37;100.00;102266.78;5001688;28;20473;-42
2023/06/24 00:31:49;;;;;;;14.10;12.70;;;;;;;15.38;100.00;102269.28;5002070;28;20432;-43
2023/06/24 00:34:19;;;;;;;13.20;12.20;;;;;;;15.38;100.00;102265.78;5002028;28;20505;-43
2023/06/24 00:36:49;;;;;;;13.23;11.93;;;;;;;15.38;100.00;102279.22;5001704;28;20441;-42
2023/06/24 00:39:17;;;;;;;14.50;11.90;;;;;;;15.35;100.00;102279.59;5001831;28;20446;-44
2023/06/24 00:41:44;;;;;;;13.40;12.10;;;;;;;15.36;100.00;102281.25;5001320;28;20504;-43
2023/06/24 00:44:13;;;;;;;12.60;11.70;;;;;;;15.30;100.00;102279.31;5001677;28;20521;-45
2023/06/24 00:46:41;;;;;;;11.87;10.87;;;;;;;15.29;100.00;102278.47;5000790;28;20449;-45
2023/06/24 00:49:09;;;;;;;12.37;11.57;;;;;;;15.28;100.00;102270.63;5001524;28;20485;-43
2023/06/24 00:51:40;;;;;;;13.87;12.73;;;;;;;15.28;100.00;102276.00;5001025;28;20441;-43
2023/06/24 00:54:09;;;;;;;12.67;11.67;;;;;;;15.24;100.00;102277.38;5001787;28;20521;-44
2023/06/24 00:56:38;;;;;;;13.60;12.70;;;;;;;15.20;100.00;102276.94;5001264;28;20476;-45
2023/06/24 00:59:08;;;;;;;14.03;12.93;;;;;;;15.18;100.00;102278.97;5001015;28;20477;-46
2023/06/24 01:01:36;;;;;;;12.73;11.90;;;;;;;15.21;100.00;102286.66;5001048;28;20932;-44
2023/06/24 01:04:04;;;;;;;13.23;12.03;;;;;;;15.18;100.00;102283.50;5001253;28;20457;-44
2023/06/24 01:06:33;;;;;;;12.90;12.00;;;;;;;15.16;100.00;102280.19;5001216;28;20470;-43
2023/06/24 01:09:02;;;;;;;13.00;11.97;;;;;;;15.14;100.00;102285.75;5000962;28;20480;-43
2023/06/24 01:11:32;;;;;;;13.67;12.47;;;;;;;15.12;100.00;102290.47;5001268;28;20442;-42
2023/06/24 01:14:00;;;;;;;13.17;11.87;;;;;;;15.10;100.00;102294.38;5000374;28;20430;-43
2023/06/24 01:16:38;;;;;;;12.77;11.87;;;;;;;15.08;100.00;102297.28;5000547;28;20528;-43
2023/06/24 01:19:25;;;;;;;14.03;12.77;;;;;;;15.08;100.00;102301.81;5000945;28;20450;-46
2023/06/24 01:22:17;;;;;;;15.10;13.90;;;;;;;15.07;100.00;102305.50;5000927;28;20434;-45
2023/06/24 01:25:02;;;;;;;14.33;13.00;;;;;;;15.04;100.00;102293.28;4999770;28;20472;-43
2023/06/24 01:27:52;;;;;;;14.00;12.80;;;;;;;15.01;100.00;102300.88;5000358;28;20461;-44
2023/06/24 01:30:42;;;;;;;15.60;14.20;;;;;;;14.98;100.00;102302.09;5000167;28;20505;-43
2023/06/24 01:33:15;;;;;;;15.83;14.27;;;;;;;14.95;100.00;102289.88;5000166;28;20951;-42
2023/06/24 01:35:44;;;;;;;16.27;14.60;;;;;;;14.94;100.00;102308.84;5000419;28;20461;-44
2023/06/24 01:38:21;;;;;;;15.37;13.97;;;;;;;14.87;100.00;102299.91;4999927;28;21035;-43
2023/06/24 01:40:51;;;;;;;15.33;13.53;;;;;;;14.87;100.00;102307.97;5000326;28;20445;-42
2023/06/24 01:43:21;;;;;;;15.50;14.07;;;;;;;14.83;100.00;102309.34;5000111;28;20437;-45
2023/06/24 01:45:52;;;;;;;14.67;13.13;;;;;;;14.82;100.00;102308.50;5000129;28;20554;-42
2023/06/24 01:48:26;;;;;;;15.60;13.77;;;;;;;14.79;100.00;102306.19;5000233;28;20449;-44
2023/06/24 01:50:59;;;;;;;15.33;14.10;;;;;;;14.79;100.00;102306.19;5000151;28;20466;-44
2023/06/24 01:53:29;;;;;;;14.77;13.60;;;;;;;14.77;100.00;102302.03;5000428;28;20436;-45
2023/06/24 01:56:00;;;;;;;14.57;13.40;;;;;;;14.75;100.00;102299.53;4999768;28;20457;-46
2023/06/24 01:58:29;;;;;;;15.33;13.93;;;;;;;14.73;100.00;102298.88;5000573;28;20453;-44
2023/06/24 02:00:58;;;;;;;15.47;14.17;;;;;;;14.72;100.00;102307.13;5000619;28;21015;-43
2023/06/24 02:03:29;;;;;;;14.10;12.70;;;;;;;14.70;100.00;102306.47;5000041;28;20438;-43
2023/06/24 02:05:58;;;;;;;13.70;12.60;;;;;;;14.68;100.00;102301.28;4999756;28;20952;-45
2023/06/24 02:08:29;;;;;;;16.00;12.40;;;;;;;14.68;100.00;102311.19;5000030;28;20433;-44
2023/06/24 02:11:00;;;;;;;14.50;13.00;;;;;;;14.66;100.00;102305.19;5000048;28;20473;-44
2023/06/24 02:13:31;;;;;;;16.77;14.50;;;;;;;14.59;100.00;102302.41;4999758;28;20940;-44
2023/06/24 02:16:00;;;;;;;14.40;13.27;;;;;;;14.56;100.00;102296.56;5000173;28;20473;-43
2023/06/24 02:18:29;;;;;;;14.83;13.63;;;;;;;14.50;100.00;102305.34;5000009;28;20437;-44
2023/06/24 02:20:58;;;;;;;16.03;14.20;;;;;;;14.45;100.00;102303.25;5000046;28;20426;-47
2023/06/24 02:23:27;;;;;;;16.00;14.70;;;;;;;14.39;100.00;102293.25;4999915;28;20434;-45
2023/06/24 02:25:55;;;;;;;16.43;15.10;;;;;;;14.31;100.00;102288.75;4999211;28;20466;-42
2023/06/24 02:28:24;;;;;;;15.70;14.30;;;;;;;14.26;100.00;102293.84;4999900;28;20920;-45
2023/06/24 02:30:52;;;;;;;15.50;14.20;;;;;;;14.23;100.00;102290.69;4999322;28;20473;-45
2023/06/24 02:33:20;;;;;;;16.47;14.97;;;;;;;14.18;100.00;102288.56;4999497;28;20438;-42
2023/06/24 02:35:49;;;;;;;15.70;14.30;;;;;;;14.14;100.00;102292.59;4998444;28;20466;-42
2023/06/24 02:38:17;;;;;;;15.43;13.77;;;;;;;14.11;100.00;102297.50;4999628;28;20434;-52
2023/06/24 02:40:46;;;;;;;17.20;15.67;;;;;;;14.09;100.00;102299.53;4999010;28;20446;-43
2023/06/24 02:43:14;;;;;;;19.00;15.70;;;;;;;14.05;100.00;102288.34;4999460;28;20453;-47
2023/06/24 02:45:42;;;;;;;18.40;15.50;;;;;;;14.02;100.00;102298.59;4998462;28;20470;-50
2023/06/24 02:48:12;;;;;;;16.50;15.07;;;;;;;13.99;100.00;102294.44;4998694;28;20449;-42
2023/06/24 02:50:41;;;;;;;17.00;15.50;;;;;;;14.00;100.00;102297.94;4999160;28;20477;-45
2023/06/24 02:53:11;;;;;;;16.97;15.57;;;;;;;13.96;100.00;102293.94;4999117;28;20422;-43
2023/06/24 02:55:41;;;;;;;18.20;16.37;;;;;;;13.97;100.00;102293.78;4998842;28;20477;-45
2023/06/24 02:58:10;;;;;;;18.23;16.53;;;;;;;13.96;100.00;102307.34;4999476;28;20430;-43
2023/06/24 03:00:38;;;;;;;16.83;15.27;;;;;;;13.96;100.00;102302.00;4999102;28;20474;-44
2023/06/24 03:03:07;;;;;;;16.67;15.27;;;;;;;13.97;100.00;102306.34;4998771;28;20496;-46
2023/06/24 03:05:36;;;;;;;18.40;16.57;;;;;;;14.00;100.00;102311.34;4998511;28;20549;-43
2023/06/24 03:08:05;;;;;;;15.40;14.20;;;;;;;14.04;100.00;102320.69;4999054;28;20995;-45
2023/06/24 03:10:34;;;;;;;17.10;15.80;;;;;;;14.07;100.00;102325.69;4998629;28;20537;-42
2023/06/24 03:13:01;;;;;;;16.77;15.37;;;;;;;14.10;100.00;102323.50;4998333;28;20507;-42
2023/06/24 03:15:29;;;;;;;17.50;15.97;;;;;;;14.15;100.00;102323.78;4998404;28;20470;-44
2023/06/24 03:17:57;;;;;;;16.67;15.23;;;;;;;14.21;100.00;102317.72;4998549;28;20430;-42
2023/06/24 03:20:25;;;;;;;16.40;15.20;;;;;;;14.28;100.00;102315.94;4998142;28;20458;-44
2023/06/24 03:22:54;;;;;;;17.03;15.53;;;;;;;14.33;100.00;102321.66;4998435;28;20426;-44
2023/06/24 03:25:22;;;;;;;17.33;15.63;;;;;;;14.36;100.00;102321.28;4998268;28;20462;-45
2023/06/24 03:27:51;;;;;;;15.27;14.07;;;;;;;14.59;100.00;102328.41;4998667;28;20446;-43
2023/06/24 03:30:18;;;;;;;16.70;15.50;;;;;;;15.25;100.00;102330.13;4997535;28;20555;-47
2023/06/24 03:32:47;;;;;;;16.97;15.60;;;;;;;15.99;100.00;102331.53;4997339;28;20434;-45
2023/06/24 03:35:15;;;;;;;16.97;15.67;;;;;;;16.41;100.00;102322.56;4997536;28;20487;-46
2023/06/24 03:37:43;;;;;;;14.37;13.43;;;;;;;16.35;100.00;102323.34;4997396;28;20940;-45
2023/06/24 03:40:12;;;;;;;14.77;13.87;;;;;;;16.34;100.00;102324.38;4997447;28;20998;-44
2023/06/24 03:42:40;;;;;;;15.80;14.50;;;;;;;16.29;100.00;102316.88;4997715;28;20484;-45
2023/06/24 03:45:10;;;;;;;15.27;13.87;;;;;;;16.28;100.00;102317.06;4997316;28;20848;-46
2023/06/24 03:47:38;;;;;;;15.20;13.97;;;;;;;16.24;100.00;102315.81;4998008;28;20429;-44
2023/06/24 03:50:07;;;;;;;15.73;14.23;;;;;;;16.19;100.00;102320.97;4997017;28;20478;-44
2023/06/24 03:52:35;;;;;;;14.50;13.40;;;;;;;16.29;100.00;102330.34;4997106;28;20438;-45
2023/06/24 03:55:04;;;;;;;14.77;13.43;;;;;;;16.39;100.00;102332.72;4996616;28;20497;-47
2023/06/24 03:57:32;;;;;;;14.53;13.40;;;;;;;16.53;100.00;102331.75;5000860;28;20438;-43
2023/06/24 04:00:00;;;;;;;14.80;13.70;;;;;;;16.66;100.00;102331.88;5001749;28;20450;-48
2023/06/24 04:02:29;;;;;;;14.53;13.40;;;;;;;16.76;100.00;102335.03;5001920;28;20433;-46
2023/06/24 04:04:58;;;;;;;14.13;13.07;;;;;;;16.88;100.00;102333.44;5001236;28;20465;-45
2023/06/24 04:07:28;;;;;;;13.93;12.83;;;;;;;16.98;100.00;102333.09;5001410;28;20430;-44
2023/06/24 04:09:57;;;;;;;14.27;12.97;;;;;;;17.08;100.00;102334.38;5001649;28;20458;-45
2023/06/24 04:12:24;;;;;;;14.87;13.67;;;;;;;17.15;100.00;102331.69;5000911;28;20465;-44
2023/06/24 04:14:52;;;;;;;12.53;11.73;;;;;;;17.20;100.00;102331.94;5000928;28;20469;-44
2023/06/24 04:17:20;;;;;;;14.80;13.60;;;;;;;17.28;100.00;102330.94;5002305;28;20461;-48
2023/06/24 04:19:49;;;;;;;13.87;12.60;;;;;;;17.32;100.00;102333.03;5001391;28;20953;-42
2023/06/24 04:22:17;;;;;;;13.17;12.07;;;;;;;17.42;100.00;102329.94;5001975;28;20434;-43
2023/06/24 04:24:44;;;;;;;13.53;12.60;;;;;;;17.47;100.00;102325.59;5001109;28;20452;-45
2023/06/24 04:27:12;;;;;;;13.37;12.37;;;;;;;17.54;100.00;102322.91;5001694;28;20473;-44
2023/06/24 04:29:40;;;;;;;12.53;11.53;;;;;;;17.59;100.00;102312.38;5001307;28;20492;-45
2023/06/24 04:32:08;;;;;;;13.00;12.00;;;;;;;17.75;100.00;102322.78;4999861;28;21181;-44
2023/06/24 04:34:36;;;;;;;12.07;11.27;;;;;;;18.03;100.00;102317.19;5001006;28;20465;-44
2023/06/24 04:37:05;;;;;;;13.47;12.40;;;;;;;18.42;100.00;102317.19;5000999;28;20437;-44
2023/06/24 04:39:33;;;;;;;13.00;12.10;;;;;;;18.74;100.00;102302.78;5000793;28;20525;-44
2023/06/24 04:42:01;;;;;;;13.13;11.90;;;;;;;18.73;100.00;102306.53;4999827;28;20442;-45
2023/06/24 04:44:29;;;;;;;12.47;11.57;;;;;;;18.82;100.00;102312.53;5000275;28;20443;-41
2023/06/24 04:46:57;;;;;;;12.57;11.57;;;;;;;19.06;100.00;102317.22;4999872;28;20781;-42
2023/06/24 04:49:24;;;;;;;11.27;10.40;;;;;;;19.25;100.00;102327.13;5001095;28;20970;-44
2023/06/24 04:51:52;;;;;;;12.97;11.97;;;;;;;19.52;100.00;102327.00;5000298;28;20492;-42
2023/06/24 04:54:21;;;;;;;12.00;10.90;;;;;;;19.78;100.00;102329.53;5000410;28;20851;-43
2023/06/24 04:56:50;;;;;;;12.50;11.50;;;;;;;19.95;100.00;102330.66;5001069;28;20456;-45
2023/06/24 04:59:18;;;;;;;13.63;12.40;;;;;;;20.48;100.00;102330.25;5000359;28;20457;-46
2023/06/24 05:01:46;;;;;;;10.60;10.00;;;;;;;20.92;100.00;102319.94;4999795;28;20483;-42
2023/06/24 05:04:13;;;;;;;12.13;10.97;;;;;;;20.84;100.00;102327.56;5000300;28;20437;-42
2023/06/24 05:06:41;;;;;;;9.90;9.20;;;;;;;20.78;100.00;102314.91;5000233;28;20430;-44
2023/06/24 05:09:13;;;;;;;13.10;9.87;;;;;;;20.57;100.00;102324.31;4999282;28;20492;-42
2023/06/24 05:11:42;;;;;;;12.17;11.07;;;;;;;20.33;100.00;102325.19;5000452;28;20501;-44
2023/06/24 05:14:10;;;;;;;10.00;9.30;;;;;;;20.16;100.00;102319.44;4999920;28;20488;-42
2023/06/24 05:16:38;;;;;;;10.73;9.93;;;;;;;20.12;100.00;102331.78;5000067;28;20421;-44
2023/06/24 05:19:06;;;;;;;11.80;10.63;;;;;;;19.99;100.00;102331.88;5003531;28;20571;-42
2023/06/24 05:21:34;;;;;;;10.57;9.77;;;;;;;19.95;100.00;102343.41;5000350;28;20442;-43
2023/06/24 05:24:02;;;;;;;11.20;10.30;;;;;;;19.89;100.00;102342.41;4998786;28;20425;-44
2023/06/24 05:26:30;;;;;;;11.00;10.10;;;;;;;19.80;100.00;102349.94;4997478;28;20465;-44
2023/06/24 05:28:59;;;;;;;11.60;10.57;;;;;;;19.77;100.00;102336.84;4998467;28;20445;-46
2023/06/24 05:31:27;;;;;;;12.73;11.23;;;;;;;19.79;100.00;102331.22;4997373;28;20535;-46
2023/06/24 05:33:55;;;;;;;11.67;10.60;;;;;;;19.82;100.00;102322.66;4998273;28;20434;-45
2023/06/24 05:36:22;;;;;;;10.23;9.53;;;;;;;19.84;100.00;102334.09;4997363;28;20512;-45
2023/06/24 05:38:50;;;;;;;11.47;10.57;;;;;;;19.90;100.00;102327.78;4998797;28;20454;-43
2023/06/24 05:41:18;;;;;;;9.40;8.70;;;;;;;20.03;100.00;102322.28;4996941;28;20442;-46
2023/06/24 05:43:46;;;;;;;11.20;10.40;;;;;;;20.19;100.00;102337.16;4998070;28;20465;-45
2023/06/24 05:46:15;;;;;;;11.10;10.27;;;;;;;20.43;100.00;102333.59;4997060;28;20536;-49
2023/06/24 05:48:43;;;;;;;11.83;10.73;;;;;;;20.76;100.00;102323.25;4998778;28;20468;-43
2023/06/24 05:51:11;;;;;;;10.40;9.40;;;;;;;21.22;100.00;102324.63;4997624;28;20465;-43
2023/06/24 05:53:39;;;;;;;11.60;10.50;;;;;;;21.62;100.00;102323.03;4997151;28;20481;-42
2023/06/24 05:56:07;;;;;;;12.70;10.73;;;;;;;21.99;100.00;102319.09;4995626;28;21089;-46
2023/06/24 05:58:34;;;;;;;13.70;10.10;;;;;;;22.35;100.00;102323.50;4997246;28;20434;-45
2023/06/24 06:01:02;;;;;;;10.73;9.83;;;;;;;22.83;100.00;102323.25;4997487;28;20433;-44
2023/06/24 06:03:32;;;;;;;10.33;9.40;;;;;;;23.25;100.00;102323.00;4997307;28;20429;-43
2023/06/24 06:06:00;;;;;;;9.73;9.03;;;;;;;23.93;100.00;102328.38;4996709;28;20457;-46
2023/06/24 06:08:28;;;;;;;9.37;8.53;;;;;;;25.12;100.00;102326.88;4997760;28;20499;-43
2023/06/24 06:10:56;;;;;;;8.33;7.67;;;;;;;26.03;100.00;102325.09;4996815;28;20855;-45
2023/06/24 06:13:24;;;;;;;9.50;8.73;;;;;;;25.76;90.70;102316.94;4996320;28;20535;-44
2023/06/24 06:15:51;;;;;;;10.60;9.13;;;;;;;25.50;91.21;102315.88;4997856;28;20472;-43
2023/06/24 06:18:19;;;;;;;10.50;9.40;;;;;;;25.61;94.65;102322.25;4997284;28;20468;-44
2023/06/24 06:20:48;;;;;;;8.00;7.50;;;;;;;25.43;92.57;102331.59;4995775;28;20437;-45
2023/06/24 06:23:16;;;;;;;8.03;7.43;;;;;;;25.31;93.01;102329.03;4997510;28;20492;-45
2023/06/24 06:25:44;;;;;;;7.43;6.90;;;;;;;25.19;91.03;102336.53;4996973;28;20527;-46
2023/06/24 06:28:15;;;;;;;6.83;6.40;;;;;;;25.18;87.28;102336.75;4997632;28;20820;-49
2023/06/24 06:30:43;;;;;;;8.23;7.53;;;;;;;24.89;88.85;102343.50;4996409;28;20453;-47
2023/06/24 06:33:11;;;;;;;9.67;8.27;;;;;;;24.44;89.79;102343.66;4996212;28;20540;-47
2023/06/24 06:35:39;;;;;;;8.77;7.90;;;;;;;24.34;90.12;102347.09;4997578;28;20465;-45
2023/06/24 06:38:08;;;;;;;8.33;7.67;;;;;;;24.19;95.38;102339.47;4997214;28;20437;-43
2023/06/24 06:40:36;;;;;;;10.90;9.80;;;;;;;24.29;91.02;102341.53;4995278;28;20468;-44
2023/06/24 06:43:04;;;;;;;10.87;8.50;;;;;;;24.39;97.66;102325.34;4997202;28;21018;-44
2023/06/24 06:45:31;;;;;;;8.10;7.33;;;;;;;24.62;95.85;102322.41;4997092;28;20499;-43
2023/06/24 06:47:59;;;;;;;7.20;6.60;;;;;;;25.05;95.72;102321.63;4997608;28;20436;-45
2023/06/24 06:50:27;;;;;;;11.53;8.80;;;;;;;25.17;90.96;102318.75;4998094;28;20461;-43
2023/06/24 06:52:55;;;;;;;8.53;7.83;;;;;;;25.27;90.39;102321.59;4998039;28;20504;-46
2023/06/24 06:55:24;;;;;;;8.37;7.80;;;;;;;25.13;84.84;102328.53;4996090;28;20512;-45
2023/06/24 06:57:52;;;;;;;8.00;7.40;;;;;;;25.08;87.08;102333.94;4997056;28;20488;-45
2023/06/24 07:00:20;;;;;;;8.77;7.90;;;;;;;25.42;90.06;102327.22;4998246;28;20453;-44
2023/06/24 07:02:47;;;;;;;8.83;8.10;;;;;;;25.82;86.58;102327.66;4998661;28;20998;-43
2023/06/24 07:05:15;;;;;;;8.07;7.33;;;;;;;27.12;80.89;102331.50;4996861;28;20875;-44
2023/06/24 07:07:45;;;;;;;7.27;6.80;;;;;;;27.71;78.59;102340.19;4996189;28;20442;-43
2023/06/24 07:10:13;;;;;;;8.37;7.60;;;;;;;27.58;74.65;102343.44;4995936;28;20446;-44
2023/06/24 07:12:42;;;;;;;8.10;7.33;;;;;;;27.27;73.25;102347.19;4995963;28;20480;-44
2023/06/24 07:15:11;;;;;;;7.57;7.07;;;;;;;27.75;68.49;102354.16;4981213;28;20469;-44
2023/06/24 07:17:40;;;;;;;7.60;7.00;;;;;;;28.06;70.97;102344.06;4996322;28;20465;-44
2023/06/24 07:20:09;;;;;;;11.67;7.00;;;;;;;28.42;69.39;102342.91;4997014;28;20485;-46
2023/06/24 07:22:37;;;;;;;7.43;6.93;;;;;;;28.57;65.68;102342.88;4995819;28;20453;-46
2023/06/24 07:25:05;;;;;;;7.33;6.90;;;;;;;28.75;63.74;102339.56;4996272;28;20796;-47
2023/06/24 07:27:33;;;;;;;7.30;6.80;;;;;;;28.87;61.40;102351.06;4996066;28;20441;-43
2023/06/24 07:30:02;;;;;;;7.70;7.00;;;;;;;28.17;62.87;102356.66;4995787;28;20450;-44
2023/06/24 07:32:30;;;;;;;7.03;6.43;;;;;;;28.61;62.61;102357.72;4995195;28;20480;-46
2023/06/24 07:34:57;;;;;;;6.03;5.53;;;;;;;28.49;61.67;102349.75;4995460;28;20225;-45
2023/06/24 07:37:25;;;;;;;6.50;6.00;;;;;;;28.76;61.33;102354.97;4992132;28;20429;-45
2023/06/24 07:39:53;;;;;;;5.70;5.30;;;;;;;29.31;60.18;102339.34;4995216;28;20465;-45
2023/06/24 07:42:21;;;;;;;5.50;5.20;;;;;;;29.29;57.52;102334.16;4994271;28;20473;-44
2023/06/24 07:44:49;;;;;;;5.63;5.33;;;;;;;29.89;56.18;102335.69;4994662;28;20500;-44
2023/06/24 07:47:19;;;;;;;5.93;5.27;;;;;;;30.00;54.03;102336.41;4994584;28;20441;-45
2023/06/24 07:49:47;;;;;;;6.67;6.00;;;;;;;29.40;53.26;102330.22;4994876;28;20221;-42
2023/06/24 07:52:15;;;;;;;4.37;4.07;;;;;;;29.60;51.13;102334.75;4994581;28;20206;-44
2023/06/24 07:54:44;;;;;;;4.50;4.20;;;;;;;29.37;53.14;102343.69;4994665;28;20699;-42
2023/06/24 07:57:11;;;;;;;5.07;4.67;;;;;;;29.30;52.44;102343.22;4994109;28;20383;-47
2023/06/24 07:59:39;;;;;;;5.57;5.17;;;;;;;29.27;50.22;102341.81;4994795;28;20242;-45
2023/06/24 08:02:07;;;;;;;5.80;5.40;;;;;;;29.74;52.63;102329.44;4995196;28;20656;-43
2023/06/24 08:04:36;;;;;;;4.57;4.00;;;;;;;30.00;51.42;102331.72;4994204;28;20503;-43
2023/06/24 08:07:04;;;;;;;6.00;5.50;;;;;;;29.75;47.89;102331.09;4994536;28;20644;-48
2023/06/24 08:09:32;;;;;;;5.00;4.60;;;;;;;29.57;51.27;102338.91;4994141;28;20905;-43
2023/06/24 08:12:00;;;;;;;5.47;4.93;;;;;;;29.57;49.53;102336.16;4993777;28;20202;-43
2023/06/24 08:14:28;;;;;;;5.63;5.13;;;;;;;28.78;46.89;102336.28;4994185;28;20214;-43
2023/06/24 08:16:57;;;;;;;4.97;4.43;;;;;;;28.79;50.55;102335.16;4994291;28;20225;-46
2023/06/24 08:19:24;;;;;;;5.60;5.00;;;;;;;28.65;49.73;102341.50;4993508;28;20330;-46
2023/06/24 08:21:54;;;;;;;5.10;4.70;;;;;;;28.80;50.56;102336.81;4994820;28;20441;-43
2023/06/24 08:24:21;;;;;;;5.30;5.10;;;;;;;28.27;52.27;102341.03;4994162;28;20947;-43
2023/06/24 08:26:49;;;;;;;5.53;5.20;;;;;;;28.41;51.06;102335.78;4994429;28;20488;-46
2023/06/24 08:29:18;;;;;;;4.40;4.10;;;;;;;28.48;49.67;102341.81;4995431;28;20860;-43
2023/06/24 08:31:46;;;;;;;5.50;5.10;;;;;;;28.47;49.86;102335.50;4994284;28;20434;-43
2023/06/24 08:34:13;;;;;;;5.30;5.00;;;;;;;28.40;50.40;102343.22;4988780;28;20477;-43
2023/06/24 08:36:41;;;;;;;5.27;4.70;;;;;;;28.57;50.80;102345.63;4995039;28;20485;-43
2023/06/24 08:39:11;;;;;;;5.27;4.90;;;;;;;28.47;50.46;102337.41;4994210;28;21046;-45
2023/06/24 08:41:38;;;;;;;5.70;5.20;;;;;;;28.32;50.57;102338.25;4993195;28;20475;-43
2023/06/24 08:44:06;;;;;;;5.00;4.70;;;;;;;28.52;50.40;102338.22;4995774;28;20847;-48
2023/06/24 08:46:35;;;;;;;4.87;4.47;;;;;;;28.71;51.94;102334.91;4996827;28;20548;-43
2023/06/24 08:49:13;;;;;;;5.67;4.93;;;;;;;28.75;51.75;102327.75;4997940;28;20449;-45
2023/06/24 08:51:45;;;;;;;5.50;5.00;;;;;;;28.58;50.71;102325.31;4997538;28;20503;-45
2023/06/24 08:54:15;;;;;;;4.80;4.50;;;;;;;28.73;51.43;102319.00;4997400;28;20549;-44
2023/06/24 08:56:43;;;;;;;6.90;5.03;;;;;;;29.03;50.54;102322.41;4997641;28;20468;-42
2023/06/24 08:59:11;;;;;;;5.17;4.87;;;;;;;28.68;50.86;102322.56;4998130;28;20883;-46
2023/06/24 09:01:39;;;;;;;5.47;4.87;;;;;;;28.33;51.16;102323.47;4997706;28;20468;-45
2023/06/24 09:04:06;;;;;;;5.43;5.13;;;;;;;28.23;50.90;102325.38;4997637;28;20433;-48
2023/06/24 09:06:35;;;;;;;5.00;4.70;;;;;;;27.65;52.47;102324.00;4996722;28;20535;-44
2023/06/24 09:09:03;;;;;;;5.73;5.23;;;;;;;28.31;52.16;102327.59;4997555;28;20467;-43
2023/06/24 09:11:32;;;;;;;5.40;5.07;;;;;;;27.81;50.17;102315.50;4996674;28;20473;-49
2023/06/24 09:14:01;;;;;;;5.07;4.70;;;;;;;27.99;51.22;102325.09;4997014;28;20484;-45
2023/06/24 09:16:30;;;;;;;5.20;4.90;;;;;;;28.06;49.88;102319.38;4996330;28;20549;-45
2023/06/24 09:18:58;;;;;;;5.20;4.90;;;;;;;28.05;47.49;102325.97;4996710;28;20450;-45
2023/06/24 09:21:28;;;;;;;6.83;4.77;;;;;;;27.97;50.38;102327.31;4996413;28;20577;-42
2023/06/24 09:23:57;;;;;;;5.03;4.63;;;;;;;27.85;48.96;102322.09;4996845;28;20430;-45
2023/06/24 09:26:26;;;;;;;4.47;4.07;;;;;;;28.18;49.58;102325.41;4995673;28;21010;-45
2023/06/24 09:28:55;;;;;;;5.60;5.10;;;;;;;28.32;47.61;102327.28;4996689;28;20504;-45
2023/06/24 09:31:24;;;;;;;5.50;5.10;;;;;;;28.42;48.47;102319.06;4996909;28;20453;-46
2023/06/24 09:33:52;;;;;;;7.50;7.00;;;;;;;28.76;47.66;102316.53;4997219;28;20481;-43
2023/06/24 09:36:20;;;;;;;5.70;5.30;;;;;;;28.66;47.53;102316.53;4997443;28;20461;-46
2023/06/24 09:38:48;;;;;;;7.43;6.03;;;;;;;28.27;48.47;102313.59;4996380;28;20465;-42
2023/06/24 09:41:16;;;;;;;12.30;6.60;;;;;;;28.36;48.85;102322.06;4996397;28;20485;-44
2023/06/24 09:43:44;;;;;;;8.60;7.70;;;;;;;28.47;48.78;102315.47;4996953;28;20488;-43
2023/06/24 09:46:15;;;;;;;5.80;5.27;;;;;;;28.37;47.27;102308.09;4996395;28;20540;-44
2023/06/24 09:48:43;;;;;;;6.03;5.53;;;;;;;28.33;48.95;102315.22;4986017;28;21047;-43
2023/06/24 09:51:14;;;;;;;5.53;5.13;;;;;;;28.65;48.87;102308.56;4993179;28;20441;-44
2023/06/24 09:53:44;;;;;;;5.90;5.40;;;;;;;28.65;48.25;102311.31;4998342;28;20547;-45
2023/06/24 09:56:14;;;;;;;6.17;4.63;;;;;;;28.41;48.00;102303.69;4997252;28;20506;-43
2023/06/24 09:58:45;;;;;;;5.50;5.20;;;;;;;28.94;49.38;102309.56;4997402;28;20496;-42
2023/06/24 10:01:16;;;;;;;5.20;4.90;;;;;;;29.10;48.11;102297.38;4996839;28;20434;-45
2023/06/24 10:03:44;;;;;;;4.93;4.63;;;;;;;29.25;47.80;102296.50;4997772;28;20500;-45
2023/06/24 10:06:12;;;;;;;6.20;5.70;;;;;;;28.94;49.48;102287.59;4996962;28;20461;-46
2023/06/24 10:08:40;;;;;;;5.97;5.57;;;;;;;28.49;50.32;102291.31;4997174;28;20488;-42
2023/06/24 10:11:08;;;;;;;5.33;5.00;;;;;;;28.82;50.27;102287.13;4996014;28;20451;-44
2023/06/24 10:13:36;;;;;;;5.67;5.20;;;;;;;29.46;50.25;102282.34;4990591;28;20450;-47
2023/06/24 10:16:05;;;;;;;5.37;5.03;;;;;;;29.99;49.28;102282.47;4995303;28;20832;-45
2023/06/24 10:18:38;;;;;;;6.47;5.87;;;;;;;30.10;48.89;102284.88;4996804;28;20432;-46
2023/06/24 10:21:07;;;;;;;5.87;5.30;;;;;;;29.69;49.32;102283.53;4997183;28;20485;-45
2023/06/24 10:23:41;;;;;;;6.50;6.10;;;;;;;29.93;48.87;102289.97;4995420;28;20437;-48
2023/06/24 10:26:11;;;;;;;6.50;5.90;;;;;;;30.12;48.88;102276.31;4995714;28;20461;-45
2023/06/24 10:29:22;;;;;;;5.90;5.50;;;;;;;30.07;48.33;102281.88;4997336;28;20437;-45
2023/06/24 10:31:54;;;;;;;5.70;5.40;;;;;;;30.44;49.34;102290.31;4990585;28;20448;-45
2023/06/24 10:34:32;;;;;;;6.30;5.80;;;;;;;30.50;48.96;102285.56;4995243;28;20473;-45
2023/06/24 10:37:02;;;;;;;5.87;5.47;;;;;;;30.81;47.87;102280.50;4994926;28;20454;-43
2023/06/24 10:39:38;;;;;;;5.60;5.20;;;;;;;31.24;47.44;102285.69;4994971;28;20457;-44
2023/06/24 10:42:31;;;;;;;5.90;5.50;;;;;;;31.08;45.32;102276.03;4995159;28;20472;-44
2023/06/24 10:45:00;;;;;;;5.53;5.23;;;;;;;30.71;46.92;102275.94;4996301;28;20476;-44
2023/06/24 10:47:30;;;;;;;6.00;5.50;;;;;;;30.81;47.09;102264.78;4994754;28;20438;-44
2023/06/24 10:49:59;;;;;;;5.30;4.83;;;;;;;30.65;46.30;102263.34;4995882;28;20450;-45
2023/06/24 10:52:27;;;;;;;5.40;5.00;;;;;;;30.31;46.39;102262.63;4994613;28;20434;-45
2023/06/24 10:54:57;;;;;;;5.57;5.07;;;;;;;30.35;46.11;102261.75;4994061;28;20528;-47
2023/06/24 10:57:26;;;;;;;5.43;5.10;;;;;;;30.44;46.46;102256.44;4996824;28;20434;-46
2023/06/24 10:59:55;;;;;;;5.67;5.33;;;;;;;30.06;47.88;102260.97;4994174;28;20461;-45
2023/06/24 11:02:24;;;;;;;6.40;5.90;;;;;;;29.91;47.76;102261.94;4995562;28;20457;-49
2023/06/24 11:04:54;;;;;;;5.83;5.20;;;;;;;29.03;50.59;102261.19;4993475;28;20461;-43
2023/06/24 11:07:25;;;;;;;5.67;5.27;;;;;;;29.63;48.97;102254.44;4995309;28;20434;-44
2023/06/24 11:09:54;;;;;;;5.37;4.90;;;;;;;29.94;48.47;102253.09;4995768;28;20461;-46
2023/06/24 11:12:24;;;;;;;5.70;5.30;;;;;;;30.10;47.56;102253.78;4995282;28;20433;-43
2023/06/24 11:14:56;;;;;;;5.00;4.70;;;;;;;30.41;47.54;102248.78;4996069;28;20527;-48
2023/06/24 11:17:23;;;;;;;5.90;4.90;;;;;;;30.38;47.09;102235.56;4994968;28;20429;-43
2023/06/24 11:19:53;;;;;;;5.90;5.50;;;;;;;30.28;46.80;102252.22;4992097;28;20493;-48
2023/06/24 11:22:23;;;;;;;5.40;5.00;;;;;;;30.44;47.42;102246.25;4995212;28;20202;-43